Time;durP1;ratioP1;P1;durP2;ratioP2;P2;SDS_P1;SDS_P2;PMS_P1;PMS_P2;Temp;Humidity;BMP_temperature;BMP_pressure;BME280_temperature;BME280_humidity;BME280_pressure;Samples;Min_cycle;Max_cycle;Signal;HPM_P1;HPM_P2
2023/01/12 00:01:48;;;;;;;4.90;2.17;;;;;;;4.45;100.00;96455.59;5069192;28;20432;-74
2023/01/12 00:04:15;;;;;;;6.33;2.90;;;;;;;4.61;100.00;96459.53;5070508;28;20424;-74
2023/01/12 00:06:42;;;;;;;3.17;2.17;;;;;;;4.47;100.00;96434.34;5061065;28;20456;-74
2023/01/12 00:09:09;;;;;;;7.40;1.83;;;;;;;4.52;100.00;96457.84;5070072;28;20439;-73
2023/01/12 00:11:37;;;;;;;6.20;1.90;;;;;;;4.59;100.00;96463.50;5063424;28;20550;-74
2023/01/12 00:14:06;;;;;;;7.70;2.60;;;;;;;4.60;100.00;96465.06;5058245;28;20904;-74
2023/01/12 00:16:33;;;;;;;9.90;2.23;;;;;;;4.58;100.00;96475.03;5071318;28;20464;-73
2023/01/12 00:19:11;;;;;;;3.40;1.63;;;;;;;4.50;100.00;96471.22;5068890;28;20424;-73
2023/01/12 00:24:33;;;;;;;6.27;1.80;;;;;;;4.48;100.00;96475.97;5061543;28;20778;-74
2023/01/12 00:27:03;;;;;;;4.40;1.80;;;;;;;4.57;100.00;96482.13;5068756;28;20434;-74
2023/01/12 00:29:31;;;;;;;4.97;2.00;;;;;;;4.56;100.00;96479.78;5063140;28;20413;-75
2023/01/12 00:31:58;;;;;;;7.40;2.50;;;;;;;4.53;100.00;96470.63;5071336;28;20445;-74
2023/01/12 00:34:25;;;;;;;5.77;2.07;;;;;;;4.45;100.00;96460.81;5081676;28;20751;-73
2023/01/12 00:36:55;;;;;;;7.60;1.90;;;;;;;4.49;100.00;96469.66;5071538;28;20464;-74
2023/01/12 00:39:22;;;;;;;2.87;1.90;;;;;;;4.25;100.00;96437.53;5061987;28;20779;-74
2023/01/12 00:47:19;;;;;;;6.60;2.67;;;;;;;4.49;100.00;96484.59;5070904;28;20436;-73
2023/01/12 00:49:46;;;;;;;7.83;2.93;;;;;;;4.20;100.00;96441.00;5057408;28;20812;-73
2023/01/12 00:52:16;;;;;;;3.80;1.97;;;;;;;4.36;100.00;96465.13;5044226;28;20464;-73
2023/01/12 00:54:55;;;;;;;3.00;1.90;;;;;;;4.50;100.00;96489.53;5049539;28;20456;-73
2023/01/12 00:57:22;;;;;;;3.93;2.00;;;;;;;4.42;100.00;96466.63;5064508;28;20579;-73
2023/01/12 00:59:50;;;;;;;4.40;1.73;;;;;;;4.59;100.00;96487.06;5057481;28;20436;-73
2023/01/12 01:02:17;;;;;;;4.93;2.17;;;;;;;4.47;100.00;96458.69;5054208;28;20460;-73
2023/01/12 01:04:43;;;;;;;10.57;2.47;;;;;;;4.55;100.00;96484.25;5047784;28;20453;-73
2023/01/12 01:07:12;;;;;;;2.80;2.00;;;;;;;4.52;100.00;96471.69;5052111;28;20421;-73
2023/01/12 01:09:38;;;;;;;5.90;2.70;;;;;;;4.42;100.00;96450.91;5040923;28;20821;-73
2023/01/12 01:12:05;;;;;;;13.43;3.30;;;;;;;4.32;100.00;96443.97;5070358;28;20503;-73
2023/01/12 01:14:32;;;;;;;5.83;2.30;;;;;;;4.33;100.00;96439.53;5066539;28;20440;-73
2023/01/12 01:16:58;;;;;;;8.30;2.80;;;;;;;4.45;100.00;96452.97;5069625;28;20452;-73
2023/01/12 01:19:25;;;;;;;2.60;1.80;;;;;;;4.32;100.00;96440.59;5068324;28;20456;-73
2023/01/12 01:21:52;;;;;;;2.23;2.13;;;;;;;4.56;100.00;96488.41;5058116;28;20472;-73
2023/01/12 01:24:18;;;;;;;6.60;2.50;;;;;;;4.57;100.00;96489.97;5062661;28;20435;-74
2023/01/12 01:26:45;;;;;;;6.47;2.23;;;;;;;4.47;100.00;96473.63;5063653;28;20440;-73
2023/01/12 01:29:11;;;;;;;4.27;1.97;;;;;;;4.64;100.00;96505.31;5057550;28;20480;-73
2023/01/12 01:31:38;;;;;;;7.23;2.47;;;;;;;4.42;100.00;96477.88;5058011;28;21108;-73
2023/01/12 01:34:05;;;;;;;5.10;2.63;;;;;;;4.62;100.00;96510.06;5070143;28;20431;-73
2023/01/12 01:36:31;;;;;;;13.00;3.00;;;;;;;4.66;100.00;96511.03;5062097;28;20467;-73
2023/01/12 01:38:58;;;;;;;6.63;2.43;;;;;;;4.64;100.00;96508.72;5071301;28;20478;-73
2023/01/12 01:41:31;;;;;;;8.40;2.47;;;;;;;4.43;100.00;96483.88;5056530;28;20430;-73
2023/01/12 01:44:28;;;;;;;3.63;1.80;;;;;;;4.61;100.00;96500.66;5071281;28;20412;-73
2023/01/12 01:46:59;;;;;;;7.47;3.27;;;;;;;4.62;100.00;96479.41;5056673;28;20920;-73
2023/01/12 01:49:31;;;;;;;3.57;1.60;;;;;;;4.60;100.00;96494.63;5069752;28;20824;-73
2023/01/12 01:52:10;;;;;;;5.13;2.60;;;;;;;4.48;100.00;96468.09;5058855;28;20435;-73
2023/01/12 01:55:05;;;;;;;2.90;1.67;;;;;;;4.62;100.00;96489.88;5057048;28;20470;-73
2023/01/12 01:57:55;;;;;;;2.80;2.40;;;;;;;4.45;100.00;96461.59;5057531;28;20453;-73
2023/01/12 02:00:23;;;;;;;4.43;1.50;;;;;;;4.54;100.00;96479.28;5070917;28;20432;-73
2023/01/12 02:02:51;;;;;;;1.87;1.40;;;;;;;4.42;100.00;96462.16;5065827;28;20440;-73
2023/01/12 02:05:21;;;;;;;2.43;1.70;;;;;;;4.63;100.00;96486.22;5043764;28;21027;-74
2023/01/12 02:07:50;;;;;;;6.27;2.43;;;;;;;4.64;100.00;96492.22;5057658;28;20512;-74
2023/01/12 02:10:18;;;;;;;4.27;1.70;;;;;;;4.51;100.00;96474.59;5057624;28;21100;-74
2023/01/12 02:18:48;;;;;;;7.33;1.87;;;;;;;4.60;100.00;96478.16;5065532;28;20474;-74
2023/01/12 02:21:24;;;;;;;7.23;2.57;;;;;;;4.62;100.00;96494.34;5059820;28;20838;-74
2023/01/12 02:24:28;;;;;;;11.57;2.20;;;;;;;4.59;100.00;96489.69;5072545;28;20528;-74
2023/01/12 02:27:16;;;;;;;9.43;1.97;;;;;;;4.61;100.00;96500.66;5056228;28;20432;-74
2023/01/12 02:30:20;;;;;;;6.00;2.50;;;;;;;4.60;100.00;96486.00;5057042;28;20451;-74
2023/01/12 02:33:18;;;;;;;3.10;1.57;;;;;;;4.62;100.00;96483.88;5039965;28;20469;-75
2023/01/12 02:35:50;;;;;;;5.43;2.93;;;;;;;4.64;100.00;96479.13;5050837;28;20441;-75
2023/01/12 02:38:37;;;;;;;5.90;2.03;;;;;;;4.62;100.00;96476.81;5062684;28;20514;-75
2023/01/12 02:42:39;;;;;;;6.40;2.53;;;;;;;4.63;100.00;96473.13;5062292;28;20408;-75
2023/01/12 02:44:21;;;;;;;8.80;2.50;;;;;;;4.66;100.00;96463.91;5059615;28;20539;-75
2023/01/12 02:46:50;;;;;;;5.13;1.87;;;;;;;4.66;100.00;96464.69;5069315;28;20431;-75
2023/01/12 02:49:23;;;;;;;9.87;2.50;;;;;;;4.57;100.00;96447.31;5056293;28;20449;-75
2023/01/12 02:52:00;;;;;;;6.40;2.10;;;;;;;4.50;100.00;96424.09;5049131;28;20433;-75
2023/01/12 02:54:29;;;;;;;4.53;2.07;;;;;;;4.70;100.00;96449.97;5064420;28;20939;-75
2023/01/12 02:57:02;;;;;;;4.80;2.63;;;;;;;4.65;100.00;96452.66;5069073;28;20439;-75
2023/01/12 02:59:32;;;;;;;6.70;2.43;;;;;;;4.55;100.00;96436.34;5055656;28;20432;-75
2023/01/12 03:02:05;;;;;;;10.80;2.00;;;;;;;4.46;100.00;96423.09;5061479;28;20434;-75
2023/01/12 03:04:32;;;;;;;7.93;2.20;;;;;;;4.38;100.00;96419.28;5068701;28;20447;-75
2023/01/12 03:06:59;;;;;;;6.87;3.20;;;;;;;4.57;100.00;96447.31;5055583;28;20443;-75
2023/01/12 03:09:42;;;;;;;8.30;2.60;;;;;;;4.37;100.00;96422.97;5056433;28;20474;-75
2023/01/12 03:12:15;;;;;;;5.33;2.17;;;;;;;4.43;100.00;96421.84;5087641;28;20427;-75
2023/01/12 03:14:46;;;;;;;3.03;2.23;;;;;;;4.25;100.00;96401.66;5056146;28;20483;-75
2023/01/12 03:17:19;;;;;;;2.30;1.63;;;;;;;4.54;100.00;96435.56;5076843;28;20431;-75
2023/01/12 03:19:47;;;;;;;9.40;1.83;;;;;;;4.42;100.00;96425.53;5078635;28;20422;-75
2023/01/12 03:22:16;;;;;;;7.40;1.87;;;;;;;4.44;100.00;96423.41;5059073;28;20440;-75
2023/01/12 03:24:47;;;;;;;2.10;1.73;;;;;;;4.43;100.00;96415.84;5073776;28;20451;-74
2023/01/12 03:27:27;;;;;;;10.67;3.57;;;;;;;4.50;100.00;96434.56;5073993;28;20511;-74
2023/01/12 03:29:59;;;;;;;8.20;2.23;;;;;;;4.30;100.00;96390.38;5072638;28;20435;-74
2023/01/12 03:32:26;;;;;;;3.70;1.90;;;;;;;4.30;100.00;96399.00;5065902;28;20780;-74
2023/01/12 03:34:53;;;;;;;6.03;2.20;;;;;;;4.40;100.00;96409.31;5049048;28;20614;-74
2023/01/12 03:37:43;;;;;;;8.10;1.50;;;;;;;4.57;100.00;96428.97;5061076;28;20454;-75
2023/01/12 03:40:20;;;;;;;10.93;2.47;;;;;;;4.60;100.00;96433.63;5072260;28;20424;-74
2023/01/12 03:42:47;;;;;;;6.17;1.90;;;;;;;4.63;100.00;96425.22;5073693;28;20416;-75
2023/01/12 03:45:19;;;;;;;3.97;1.50;;;;;;;4.65;100.00;96425.69;5059290;28;20573;-75
2023/01/12 03:47:52;;;;;;;1.40;1.30;;;;;;;4.65;100.00;96423.84;5058706;28;20468;-75
2023/01/12 03:50:37;;;;;;;4.20;1.70;;;;;;;4.53;100.00;96397.34;5072638;28;20853;-75
2023/01/12 03:53:07;;;;;;;1.90;1.40;;;;;;;4.63;100.00;96405.03;5058806;28;20436;-75
2023/01/12 03:55:36;;;;;;;2.50;1.37;;;;;;;4.76;100.00;96419.25;5072165;28;20473;-75
2023/01/12 03:58:03;;;;;;;5.43;2.10;;;;;;;4.57;100.00;96387.09;5059873;28;20562;-75
2023/01/12 04:00:33;;;;;;;3.63;2.13;;;;;;;4.57;100.00;96389.72;5043558;28;21013;-75
2023/01/12 04:03:13;;;;;;;4.77;1.87;;;;;;;4.66;100.00;96401.84;5071069;28;20425;-75
2023/01/12 04:05:41;;;;;;;3.83;1.67;;;;;;;4.53;100.00;96396.56;5070527;28;20448;-75
2023/01/12 04:08:10;;;;;;;4.20;2.03;;;;;;;4.33;100.00;96364.41;5061210;28;20423;-75
2023/01/12 04:10:36;;;;;;;5.37;2.00;;;;;;;4.34;100.00;96373.03;5077895;28;20788;-75
2023/01/12 04:13:03;;;;;;;3.73;2.17;;;;;;;4.39;100.00;96375.56;5083494;28;20436;-75
2023/01/12 04:15:35;;;;;;;6.00;2.23;;;;;;;4.44;100.00;96384.13;5053701;28;20464;-75
2023/01/12 04:18:01;;;;;;;3.43;1.77;;;;;;;4.49;100.00;96396.34;5063179;28;20487;-75
2023/01/12 04:20:28;;;;;;;8.27;1.40;;;;;;;4.54;100.00;96396.28;5055788;28;20437;-75
2023/01/12 04:22:54;;;;;;;5.20;2.07;;;;;;;4.44;100.00;96372.88;5061022;28;20808;-75
2023/01/12 04:25:22;;;;;;;4.60;1.97;;;;;;;4.32;100.00;96367.31;5057775;28;20468;-75
2023/01/12 04:28:00;;;;;;;7.60;1.70;;;;;;;4.47;100.00;96384.63;5061495;28;20464;-74
2023/01/12 04:30:31;;;;;;;10.80;1.80;;;;;;;4.28;100.00;96358.47;5066131;28;20958;-75
2023/01/12 04:33:00;;;;;;;2.20;1.67;;;;;;;4.56;100.00;96394.16;5063398;28;20440;-75
2023/01/12 04:35:26;;;;;;;3.33;1.40;;;;;;;4.37;100.00;96364.59;5057866;28;20448;-74
2023/01/12 04:37:53;;;;;;;4.37;1.67;;;;;;;4.31;100.00;96363.13;5058625;28;20866;-75
2023/01/12 04:40:20;;;;;;;3.87;1.87;;;;;;;4.32;100.00;96365.47;5048066;28;20504;-74
2023/01/12 04:43:00;;;;;;;7.77;3.00;;;;;;;4.47;100.00;96390.63;5063930;28;20516;-75
2023/01/12 04:45:31;;;;;;;9.10;1.80;;;;;;;4.48;100.00;96394.81;5050947;28;20555;-75
2023/01/12 04:48:09;;;;;;;4.00;1.07;;;;;;;4.44;100.00;96394.59;5068797;28;20465;-74
2023/01/12 04:50:37;;;;;;;9.60;2.37;;;;;;;4.46;100.00;96391.69;5044975;28;20447;-75
2023/01/12 04:53:06;;;;;;;5.90;2.23;;;;;;;4.48;100.00;96397.41;5057231;28;20440;-75
2023/01/12 04:55:36;;;;;;;5.40;1.70;;;;;;;4.27;100.00;96367.38;5059861;28;20464;-75
2023/01/12 04:58:03;;;;;;;8.63;2.83;;;;;;;4.41;100.00;96397.00;5064075;28;20518;-74
2023/01/12 05:00:30;;;;;;;4.10;1.50;;;;;;;4.33;100.00;96382.72;5062567;28;20557;-74
2023/01/12 05:03:00;;;;;;;7.83;2.60;;;;;;;4.38;100.00;96389.72;5057510;28;20440;-74
2023/01/12 05:05:29;;;;;;;5.60;2.03;;;;;;;4.33;100.00;96392.41;5070987;28;20805;-74
2023/01/12 05:10:54;;;;;;;5.60;1.77;;;;;;;4.24;100.00;96366.09;5060379;28;20520;-73
2023/01/12 05:13:24;;;;;;;3.10;1.70;;;;;;;3.98;100.00;96326.44;5079816;28;20442;-74
2023/01/12 05:15:50;;;;;;;3.27;1.40;;;;;;;4.32;100.00;96369.94;5065476;28;20815;-74
2023/01/12 05:18:17;;;;;;;3.60;1.67;;;;;;;4.09;100.00;96348.78;5064636;28;20460;-74
2023/01/12 05:20:44;;;;;;;3.57;1.53;;;;;;;4.11;100.00;96348.50;5073646;28;20425;-76
2023/01/12 05:23:10;;;;;;;5.63;1.80;;;;;;;4.24;100.00;96360.09;5070425;28;20507;-74
2023/01/12 05:25:37;;;;;;;10.30;4.13;;;;;;;4.09;100.00;96348.00;5056904;28;20868;-74
2023/01/12 05:28:04;;;;;;;2.80;2.07;;;;;;;4.05;100.00;96345.19;5059614;28;20449;-74
2023/01/12 05:30:30;;;;;;;5.33;2.30;;;;;;;4.15;100.00;96360.75;5046308;28;20575;-73
2023/01/12 05:32:58;;;;;;;8.50;2.67;;;;;;;4.19;100.00;96371.41;5051567;28;20421;-74
2023/01/12 05:35:24;;;;;;;2.87;2.00;;;;;;;4.05;100.00;96342.56;5052781;28;20464;-74
2023/01/12 05:37:54;;;;;;;3.33;1.73;;;;;;;4.23;100.00;96371.63;5071659;28;20455;-74
2023/01/12 05:40:21;;;;;;;2.73;1.53;;;;;;;3.97;100.00;96330.13;5058167;28;20428;-74
2023/01/12 05:45:35;;;;;;;8.13;2.23;;;;;;;4.07;100.00;96352.75;5084705;28;20452;-74
2023/01/12 05:48:02;;;;;;;4.70;1.90;;;;;;;4.18;100.00;96369.88;5095727;28;20409;-75
2023/01/12 05:50:28;;;;;;;3.37;1.50;;;;;;;4.27;100.00;96369.97;5079394;28;20436;-75
2023/01/12 05:53:15;;;;;;;6.00;1.47;;;;;;;4.09;100.00;96359.25;5072374;28;20443;-74
2023/01/12 05:55:42;;;;;;;5.70;1.40;;;;;;;4.15;100.00;96373.84;5061757;28;20988;-74
2023/01/12 05:58:09;;;;;;;4.77;1.60;;;;;;;4.19;100.00;96374.03;5065083;28;20468;-74
2023/01/12 06:00:35;;;;;;;5.93;1.70;;;;;;;4.01;100.00;96343.44;5062861;28;20443;-74
2023/01/12 06:03:02;;;;;;;3.77;1.63;;;;;;;4.17;100.00;96370.16;5063763;28;20524;-74
2023/01/12 06:05:29;;;;;;;3.93;1.57;;;;;;;3.91;100.00;96333.88;5063054;28;20484;-74
2023/01/12 06:07:57;;;;;;;4.20;2.30;;;;;;;4.16;100.00;96372.00;5046450;28;20437;-74
2023/01/12 06:10:23;;;;;;;12.73;2.63;;;;;;;4.08;100.00;96356.91;5063401;28;20440;-74
2023/01/12 06:15:35;;;;;;;3.57;1.83;;;;;;;4.03;100.00;96357.78;5073979;28;20463;-74
2023/01/12 06:18:02;;;;;;;4.10;2.43;;;;;;;4.11;100.00;96367.59;5069900;28;20870;-74
2023/01/12 06:20:29;;;;;;;6.10;2.23;;;;;;;4.12;100.00;96366.53;5073252;28;20515;-74
2023/01/12 06:23:00;;;;;;;8.93;1.90;;;;;;;3.91;100.00;96315.56;5070650;28;20493;-74
2023/01/12 06:25:28;;;;;;;4.67;1.60;;;;;;;4.07;100.00;96344.91;5055967;28;20466;-74
2023/01/12 06:27:55;;;;;;;1.37;1.23;;;;;;;3.61;100.00;96293.25;5052594;28;20460;-74
2023/01/12 06:30:23;;;;;;;5.13;1.90;;;;;;;4.17;100.00;96350.00;5065600;28;20487;-74
2023/01/12 06:32:49;;;;;;;7.20;2.33;;;;;;;4.13;100.00;96341.13;5060446;28;20420;-74
2023/01/12 06:35:16;;;;;;;2.83;1.70;;;;;;;4.23;100.00;96355.91;5055716;28;20458;-74
2023/01/12 06:37:45;;;;;;;8.33;2.60;;;;;;;3.98;100.00;96313.38;5052847;28;20432;-74
2023/01/12 06:40:12;;;;;;;3.13;2.00;;;;;;;4.11;100.00;96332.81;5069609;28;20484;-74
2023/01/12 06:42:40;;;;;;;4.53;3.00;;;;;;;4.23;100.00;96348.06;5061818;28;20441;-74
2023/01/12 06:45:08;;;;;;;11.87;8.73;;;;;;;4.27;100.00;96354.28;5054196;28;20550;-74
2023/01/12 06:47:46;;;;;;;13.97;5.27;;;;;;;4.26;100.00;96344.88;5044477;28;20475;-74
2023/01/12 06:50:12;;;;;;;6.93;6.03;;;;;;;4.17;100.00;96329.06;5073560;28;20456;-72
2023/01/12 06:52:40;;;;;;;4.50;2.37;;;;;;;4.28;100.00;96345.41;5059696;28;20429;-72
2023/01/12 06:55:07;;;;;;;2.53;1.50;;;;;;;4.27;100.00;96341.97;5056486;28;20467;-71
2023/01/12 06:57:33;;;;;;;2.90;2.50;;;;;;;4.05;100.00;96319.03;5073409;28;20444;-72
2023/01/12 07:00:00;;;;;;;2.67;1.50;;;;;;;4.29;100.00;96336.47;5068622;28;20467;-73
2023/01/12 07:02:29;;;;;;;2.53;1.63;;;;;;;4.13;100.00;96314.97;5072902;28;20466;-72
2023/01/12 07:04:56;;;;;;;5.73;4.57;;;;;;;4.17;100.00;96317.81;5064966;28;20518;-72
2023/01/12 07:07:22;;;;;;;4.03;3.30;;;;;;;4.28;100.00;96334.94;5067410;28;20515;-72
2023/01/12 07:09:49;;;;;;;5.77;1.97;;;;;;;4.13;100.00;96305.28;5072886;28;20430;-74
2023/01/12 07:12:16;;;;;;;8.50;6.90;;;;;;;4.08;100.00;96296.75;5086095;28;21113;-74
2023/01/12 07:14:42;;;;;;;6.67;2.47;;;;;;;4.04;100.00;96301.00;5056144;28;20452;-74
2023/01/12 07:17:11;;;;;;;4.97;2.57;;;;;;;3.84;100.00;96273.31;5042670;28;20948;-75
2023/01/12 07:19:38;;;;;;;8.33;2.90;;;;;;;4.18;100.00;96316.75;5077141;28;20809;-75
2023/01/12 07:22:07;;;;;;;4.30;2.63;;;;;;;4.33;100.00;96327.00;5076487;28;20451;-75
2023/01/12 07:24:33;;;;;;;5.33;2.50;;;;;;;4.27;100.00;96321.03;5055865;28;20797;-75
2023/01/12 07:27:00;;;;;;;9.60;3.30;;;;;;;4.09;100.00;96293.84;5071029;28;21008;-75
2023/01/12 07:29:27;;;;;;;6.77;3.10;;;;;;;4.20;100.00;96314.63;5045619;28;20543;-75
2023/01/12 07:31:53;;;;;;;15.80;7.17;;;;;;;4.08;100.00;96297.53;5060087;28;20512;-75
2023/01/12 07:34:20;;;;;;;16.47;8.87;;;;;;;4.24;100.00;96303.28;5046066;28;20836;-75
2023/01/12 07:36:48;;;;;;;12.60;6.80;;;;;;;4.35;100.00;96319.63;5067154;28;20825;-75
2023/01/12 07:39:16;;;;;;;5.60;3.50;;;;;;;4.22;100.00;96302.03;5062217;28;20459;-75
2023/01/12 07:44:27;;;;;;;17.37;4.63;;;;;;;4.23;100.00;96298.34;5072066;28;20966;-75
2023/01/12 07:46:54;;;;;;;3.87;3.33;;;;;;;4.37;100.00;96322.72;5055654;28;20440;-76
2023/01/12 07:49:21;;;;;;;2.83;2.30;;;;;;;4.36;100.00;96316.72;5059500;28;20436;-75
2023/01/12 07:51:47;;;;;;;4.07;2.20;;;;;;;4.36;100.00;96310.72;5064501;28;20425;-75
2023/01/12 07:54:14;;;;;;;4.37;1.73;;;;;;;4.41;100.00;96308.03;5066113;28;20511;-75
2023/01/12 07:56:41;;;;;;;2.33;1.40;;;;;;;4.40;100.00;96303.81;5065472;28;20491;-75
2023/01/12 07:59:10;;;;;;;3.30;1.40;;;;;;;4.30;100.00;96278.63;5065140;28;20472;-75
2023/01/12 08:01:36;;;;;;;2.17;1.47;;;;;;;4.18;100.00;96278.28;5059354;28;20858;-75
2023/01/12 08:04:03;;;;;;;2.70;1.80;;;;;;;4.23;100.00;96272.19;5060964;28;20448;-75
2023/01/12 08:06:33;;;;;;;6.43;1.70;;;;;;;4.48;100.00;96303.19;5071514;28;20537;-75
2023/01/12 08:09:00;;;;;;;4.13;2.87;;;;;;;4.48;100.00;96294.56;5071485;28;20435;-75
2023/01/12 08:11:27;;;;;;;2.37;1.93;;;;;;;4.27;100.00;96253.00;5080234;28;20450;-75
2023/01/12 08:13:56;;;;;;;3.70;2.30;;;;;;;4.58;100.00;96305.63;5091281;28;20951;-75
2023/01/12 08:16:28;;;;;;;6.03;2.07;;;;;;;4.47;100.00;96283.31;5054976;28;20448;-75
2023/01/12 08:18:56;;;;;;;5.40;2.23;;;;;;;4.59;100.00;96304.56;5067637;28;20452;-75
2023/01/12 08:21:28;;;;;;;2.77;2.47;;;;;;;4.40;100.00;96270.56;5062769;28;20432;-75
2023/01/12 08:23:58;;;;;;;6.33;2.40;;;;;;;4.59;100.00;96293.31;5052258;28;20452;-75
2023/01/12 08:26:32;;;;;;;6.83;1.47;;;;;;;4.64;100.00;96301.06;5055028;28;20547;-75
2023/01/12 08:29:17;;;;;;;6.27;1.50;;;;;;;4.48;100.00;96269.16;5072671;28;20425;-75
2023/01/12 08:31:43;;;;;;;3.80;1.50;;;;;;;4.47;100.00;96262.38;5071297;28;20435;-75
2023/01/12 08:34:10;;;;;;;4.37;3.97;;;;;;;4.63;100.00;96275.97;5071353;28;20444;-75
2023/01/12 08:36:39;;;;;;;6.73;2.47;;;;;;;4.64;100.00;96277.50;5054472;28;20456;-75
2023/01/12 08:39:06;;;;;;;4.27;3.03;;;;;;;4.87;100.00;96310.63;5072494;28;20555;-75
2023/01/12 08:41:33;;;;;;;5.67;2.40;;;;;;;4.64;100.00;96262.56;5068897;28;20467;-75
2023/01/12 08:44:01;;;;;;;10.97;5.60;;;;;;;4.94;100.00;96299.75;5060137;28;20526;-75
2023/01/12 08:46:34;;;;;;;8.87;4.63;;;;;;;4.83;100.00;96285.31;5057675;28;20484;-74
2023/01/12 08:49:12;;;;;;;9.23;5.80;;;;;;;4.95;100.00;96309.97;5080873;28;20895;-74
2023/01/12 08:51:43;;;;;;;18.20;12.53;;;;;;;4.97;100.00;96307.81;5054758;28;20436;-75
2023/01/12 08:54:11;;;;;;;10.23;5.37;;;;;;;5.01;100.00;96318.50;5061481;28;20738;-75
2023/01/12 08:56:38;;;;;;;12.17;3.20;;;;;;;4.97;100.00;96304.44;5070588;28;20448;-75
2023/01/12 08:59:05;;;;;;;9.00;3.50;;;;;;;4.77;100.00;96275.97;5071199;28;20467;-75
2023/01/12 09:01:32;;;;;;;10.10;7.90;;;;;;;4.72;100.00;96269.78;5070833;28;20486;-75
2023/01/12 09:03:59;;;;;;;5.93;4.80;;;;;;;4.91;100.00;96303.72;5058604;28;20425;-75
2023/01/12 09:06:33;;;;;;;18.53;9.10;;;;;;;4.89;100.00;96307.72;5040756;28;20464;-75
2023/01/12 09:09:03;;;;;;;21.53;13.50;;;;;;;4.92;100.00;96315.75;5057272;28;20764;-75
2023/01/12 09:11:31;;;;;;;6.23;4.40;;;;;;;4.75;100.00;96295.38;5079289;28;20488;-75
2023/01/12 09:13:58;;;;;;;20.70;12.13;;;;;;;4.71;100.00;96277.94;5057127;28;20995;-75
2023/01/12 09:16:26;;;;;;;13.23;7.33;;;;;;;4.85;100.00;96307.53;5044624;28;20564;-74
2023/01/12 09:18:53;;;;;;;8.70;6.00;;;;;;;4.74;100.00;96278.13;5071290;28;20472;-74
2023/01/12 09:21:21;;;;;;;3.80;2.63;;;;;;;4.94;100.00;96303.19;5081176;28;20428;-75
2023/01/12 09:23:48;;;;;;;5.60;4.20;;;;;;;4.81;100.00;96288.22;5067075;28;20449;-75
2023/01/12 09:26:24;;;;;;;7.50;2.10;;;;;;;4.76;100.00;96283.06;5061648;28;20444;-75
2023/01/12 09:28:51;;;;;;;3.63;2.43;;;;;;;4.90;100.00;96314.50;5056613;28;20444;-75
2023/01/12 09:31:21;;;;;;;6.10;3.50;;;;;;;4.91;100.00;96319.44;5062127;28;20528;-75
2023/01/12 09:33:48;;;;;;;5.10;2.27;;;;;;;4.89;100.00;96316.34;5066161;28;20429;-74
2023/01/12 09:36:17;;;;;;;5.67;2.13;;;;;;;4.73;100.00;96278.41;5063367;28;20555;-75
2023/01/12 09:38:45;;;;;;;7.03;2.93;;;;;;;4.94;100.00;96305.78;5056339;28;20464;-75
2023/01/12 09:47:34;;;;;;;8.13;2.50;;;;;;;5.10;100.00;96301.03;5059210;28;20503;-75
2023/01/12 09:50:10;;;;;;;6.13;2.50;;;;;;;5.12;100.00;96298.13;5056274;28;20464;-75
2023/01/12 09:52:46;;;;;;;5.33;2.07;;;;;;;5.02;100.00;96281.53;5040460;28;20532;-75
2023/01/12 09:55:21;;;;;;;5.23;2.10;;;;;;;5.09;100.00;96283.78;5070636;28;20449;-75
2023/01/12 09:58:06;;;;;;;2.53;1.73;;;;;;;5.24;100.00;96304.44;5069929;28;20821;-75
2023/01/12 10:00:32;;;;;;;6.10;2.10;;;;;;;5.29;100.00;96293.06;5078460;28;20821;-75
2023/01/12 10:03:04;;;;;;;4.87;1.93;;;;;;;5.27;100.00;96295.97;5064980;28;20818;-75
2023/01/12 10:05:52;;;;;;;3.70;2.93;;;;;;;5.29;100.00;96288.59;5049381;28;20457;-75
2023/01/12 10:08:39;;;;;;;3.90;2.10;;;;;;;5.36;100.00;96287.44;5058181;28;20440;-75
2023/01/12 10:11:24;;;;;;;3.57;1.93;;;;;;;5.11;100.00;96252.81;5074988;28;20534;-75
2023/01/12 10:14:00;;;;;;;7.83;2.00;;;;;;;5.41;100.00;96288.09;5057833;28;20475;-74
2023/01/12 10:16:45;;;;;;;5.07;2.17;;;;;;;5.41;100.00;96279.47;5068748;28;20464;-75
2023/01/12 10:19:22;;;;;;;7.57;3.20;;;;;;;5.39;100.00;96266.66;5075642;28;20487;-75
2023/01/12 10:21:52;;;;;;;4.37;2.13;;;;;;;5.14;100.00;96222.63;5069209;28;20501;-75
2023/01/12 10:24:24;;;;;;;2.83;1.90;;;;;;;5.47;100.00;96275.66;5072820;28;20501;-75
2023/01/12 10:27:02;;;;;;;10.97;2.70;;;;;;;5.41;100.00;96268.97;5055872;28;20871;-75
2023/01/12 10:29:31;;;;;;;9.30;2.37;;;;;;;5.38;100.00;96269.56;5069537;28;20446;-75
2023/01/12 10:31:58;;;;;;;4.90;1.83;;;;;;;5.23;100.00;96252.31;5069235;28;20447;-75
2023/01/12 10:34:24;;;;;;;9.30;3.00;;;;;;;5.31;100.00;96262.09;5070466;28;20428;-75
2023/01/12 10:36:57;;;;;;;4.77;2.40;;;;;;;5.25;100.00;96242.31;5039025;28;20440;-75
2023/01/12 10:39:34;;;;;;;5.87;2.20;;;;;;;5.44;100.00;96263.13;5070536;28;20467;-75
2023/01/12 10:45:20;;;;;;;3.33;2.10;;;;;;;5.10;100.00;96222.44;5070282;28;20487;-75
2023/01/12 10:47:49;;;;;;;7.83;3.50;;;;;;;5.28;100.00;96249.59;5069421;28;20452;-75
2023/01/12 10:50:19;;;;;;;2.77;2.57;;;;;;;5.19;100.00;96244.25;5068957;28;20459;-75
2023/01/12 10:52:47;;;;;;;4.47;1.53;;;;;;;5.08;100.00;96229.03;5069054;28;20432;-75
2023/01/12 10:55:21;;;;;;;4.90;2.10;;;;;;;5.09;100.00;96235.84;5052653;28;20460;-75
2023/01/12 10:57:50;;;;;;;3.43;2.83;;;;;;;4.91;100.00;96209.44;5069146;28;20538;-75
2023/01/12 11:00:25;;;;;;;8.07;2.10;;;;;;;4.98;100.00;96220.31;5069048;28;20452;-75
2023/01/12 11:02:52;;;;;;;8.67;2.13;;;;;;;4.88;100.00;96201.38;5055419;28;20554;-75
2023/01/12 11:05:37;;;;;;;7.80;2.07;;;;;;;5.07;100.00;96215.13;5069177;28;20452;-75
2023/01/12 11:08:22;;;;;;;2.30;1.13;;;;;;;4.85;100.00;96200.13;5069002;28;20424;-75
2023/01/12 11:10:48;;;;;;;3.20;1.40;;;;;;;4.95;100.00;96220.91;5072165;28;20851;-75
2023/01/12 11:13:25;;;;;;;6.90;2.00;;;;;;;5.05;100.00;96225.91;5080580;28;20424;-75
2023/01/12 11:16:04;;;;;;;3.23;2.30;;;;;;;4.99;100.00;96205.38;5052255;28;20464;-75
2023/01/12 11:18:39;;;;;;;5.60;1.93;;;;;;;5.09;100.00;96215.66;5074707;28;20423;-75
2023/01/12 11:21:13;;;;;;;3.93;1.70;;;;;;;4.75;100.00;96161.03;5056397;28;20479;-75
2023/01/12 11:23:43;;;;;;;1.87;1.37;;;;;;;5.12;100.00;96209.03;5070340;28;20493;-75
2023/01/12 11:26:38;;;;;;;5.00;1.80;;;;;;;5.18;100.00;96211.25;5044420;28;20632;-75
2023/01/12 11:29:34;;;;;;;4.47;2.40;;;;;;;5.09;100.00;96207.00;5097249;28;20423;-74
2023/01/12 11:32:29;;;;;;;2.80;1.87;;;;;;;5.10;100.00;96200.69;5101991;28;20421;-75
2023/01/12 11:35:03;;;;;;;5.27;1.73;;;;;;;4.96;100.00;96167.44;5069413;28;20504;-75
2023/01/12 11:37:34;;;;;;;4.87;1.70;;;;;;;4.90;100.00;96159.97;5072819;28;20436;-75
2023/01/12 11:40:22;;;;;;;2.10;1.43;;;;;;;4.89;100.00;96156.56;5075958;28;20471;-75
2023/01/12 11:45:45;;;;;;;4.63;1.73;;;;;;;4.91;100.00;96164.91;5053759;28;20535;-74
2023/01/12 11:48:20;;;;;;;3.33;2.20;;;;;;;4.81;100.00;96152.03;5052455;28;21097;-74
2023/01/12 11:50:49;;;;;;;4.10;1.67;;;;;;;5.02;100.00;96173.34;5072086;28;20863;-74
2023/01/12 11:53:22;;;;;;;4.67;2.90;;;;;;;5.00;100.00;96176.25;5053541;28;20536;-75
2023/01/12 11:56:08;;;;;;;4.20;2.57;;;;;;;4.97;100.00;96171.59;5064987;28;20984;-75
2023/01/12 11:58:58;;;;;;;6.07;2.37;;;;;;;4.96;100.00;96171.91;5071915;28;20440;-75
2023/01/12 12:01:31;;;;;;;7.07;3.07;;;;;;;4.97;100.00;96162.97;5055249;28;20460;-75
2023/01/12 12:04:00;;;;;;;3.77;3.33;;;;;;;4.96;100.00;96156.97;5072002;28;20436;-75
2023/01/12 12:06:37;;;;;;;5.83;2.17;;;;;;;4.97;100.00;96140.16;5071652;28;20555;-75
2023/01/12 12:09:12;;;;;;;3.10;1.93;;;;;;;4.89;100.00;96121.75;5071772;28;20956;-75
2023/01/12 12:11:41;;;;;;;9.67;3.07;;;;;;;5.05;100.00;96143.91;5065255;28;20434;-75
2023/01/12 12:14:17;;;;;;;3.40;2.30;;;;;;;5.08;100.00;96134.72;5074313;28;20432;-75
2023/01/12 12:17:09;;;;;;;2.03;1.80;;;;;;;5.00;100.00;96116.00;5055013;28;20513;-75
2023/01/12 12:20:17;;;;;;;2.07;1.40;;;;;;;5.03;100.00;96119.88;5052762;28;20460;-74
2023/01/12 12:22:56;;;;;;;6.93;2.43;;;;;;;5.24;100.00;96133.31;5042997;28;20454;-75
2023/01/12 12:25:44;;;;;;;2.13;1.63;;;;;;;5.28;100.00;96132.41;5071427;28;20456;-75
2023/01/12 12:28:17;;;;;;;5.57;1.50;;;;;;;5.31;100.00;96117.94;5054946;28;20526;-75
2023/01/12 12:30:59;;;;;;;3.23;1.83;;;;;;;5.36;100.00;96122.31;5060008;28;20434;-75